sensor_id;sensor_type;location;lat;lon;timestamp;P1;durP1;ratioP1;P2;durP2;ratioP2
9942;SDS011;5010;45.080;7.634;2023-02-15T00:01:30;16.67;;;15.70;;
9942;SDS011;5010;45.080;7.634;2023-02-15T00:03:57;24.50;;;16.50;;
9942;SDS011;5010;45.080;7.634;2023-02-15T00:06:24;19.30;;;15.52;;
9942;SDS011;5010;45.080;7.634;2023-02-15T00:08:51;18.35;;;17.05;;
9942;SDS011;5010;45.080;7.634;2023-02-15T00:11:20;16.50;;;14.80;;
9942;SDS011;5010;45.080;7.634;2023-02-15T00:14:01;18.40;;;14.75;;
9942;SDS011;5010;45.080;7.634;2023-02-15T00:16:28;17.27;;;13.65;;
9942;SDS011;5010;45.080;7.634;2023-02-15T00:18:55;20.20;;;16.80;;
9942;SDS011;5010;45.080;7.634;2023-02-15T00:21:22;16.92;;;14.45;;
9942;SDS011;5010;45.080;7.634;2023-02-15T00:23:49;20.88;;;15.98;;
9942;SDS011;5010;45.080;7.634;2023-02-15T00:26:16;22.92;;;17.17;;
9942;SDS011;5010;45.080;7.634;2023-02-15T00:28:44;20.75;;;17.25;;
9942;SDS011;5010;45.080;7.634;2023-02-15T00:31:11;20.85;;;16.77;;
9942;SDS011;5010;45.080;7.634;2023-02-15T00:33:39;21.23;;;16.63;;
9942;SDS011;5010;45.080;7.634;2023-02-15T00:36:06;18.20;;;17.23;;
9942;SDS011;5010;45.080;7.634;2023-02-15T00:38:35;23.27;;;16.83;;
9942;SDS011;5010;45.080;7.634;2023-02-15T00:41:03;19.25;;;18.27;;
9942;SDS011;5010;45.080;7.634;2023-02-15T00:43:32;19.65;;;16.40;;
9942;SDS011;5010;45.080;7.634;2023-02-15T00:46:01;23.30;;;17.13;;
9942;SDS011;5010;45.080;7.634;2023-02-15T00:48:29;22.52;;;16.05;;
9942;SDS011;5010;45.080;7.634;2023-02-15T00:50:56;22.02;;;16.50;;
9942;SDS011;5010;45.080;7.634;2023-02-15T00:53:25;17.98;;;15.98;;
9942;SDS011;5010;45.080;7.634;2023-02-15T00:55:53;22.38;;;16.55;;
9942;SDS011;5010;45.080;7.634;2023-02-15T00:58:20;18.67;;;15.52;;
9942;SDS011;5010;45.080;7.634;2023-02-15T01:00:47;20.30;;;18.30;;
9942;SDS011;5010;45.080;7.634;2023-02-15T01:03:16;20.40;;;15.68;;
9942;SDS011;5010;45.080;7.634;2023-02-15T01:05:44;24.73;;;17.00;;
9942;SDS011;5010;45.080;7.634;2023-02-15T01:08:12;24.45;;;18.10;;
9942;SDS011;5010;45.080;7.634;2023-02-15T01:10:39;17.95;;;13.93;;
9942;SDS011;5010;45.080;7.634;2023-02-15T01:13:06;17.90;;;14.77;;
9942;SDS011;5010;45.080;7.634;2023-02-15T01:15:34;18.75;;;15.80;;
9942;SDS011;5010;45.080;7.634;2023-02-15T01:18:01;20.23;;;15.35;;
9942;SDS011;5010;45.080;7.634;2023-02-15T01:20:29;20.75;;;17.95;;
9942;SDS011;5010;45.080;7.634;2023-02-15T01:23:00;18.98;;;15.48;;
9942;SDS011;5010;45.080;7.634;2023-02-15T01:25:27;18.95;;;14.77;;
9942;SDS011;5010;45.080;7.634;2023-02-15T01:27:54;16.65;;;14.10;;
9942;SDS011;5010;45.080;7.634;2023-02-15T01:30:20;19.30;;;16.10;;
9942;SDS011;5010;45.080;7.634;2023-02-15T01:32:47;19.05;;;16.73;;
9942;SDS011;5010;45.080;7.634;2023-02-15T01:35:14;21.67;;;16.35;;
9942;SDS011;5010;45.080;7.634;2023-02-15T01:37:42;18.75;;;15.35;;
9942;SDS011;5010;45.080;7.634;2023-02-15T01:40:11;18.80;;;16.33;;
9942;SDS011;5010;45.080;7.634;2023-02-15T01:42:40;21.05;;;14.20;;
9942;SDS011;5010;45.080;7.634;2023-02-15T01:45:14;17.48;;;15.73;;
9942;SDS011;5010;45.080;7.634;2023-02-15T01:47:48;17.52;;;15.82;;
9942;SDS011;5010;45.080;7.634;2023-02-15T01:50:18;20.27;;;16.77;;
9942;SDS011;5010;45.080;7.634;2023-02-15T01:52:52;15.82;;;13.10;;
9942;SDS011;5010;45.080;7.634;2023-02-15T01:55:25;17.50;;;15.45;;
9942;SDS011;5010;45.080;7.634;2023-02-15T01:57:56;15.07;;;13.05;;
9942;SDS011;5010;45.080;7.634;2023-02-15T02:00:23;17.70;;;16.17;;
9942;SDS011;5010;45.080;7.634;2023-02-15T02:02:51;16.65;;;15.13;;
9942;SDS011;5010;45.080;7.634;2023-02-15T02:05:21;20.88;;;18.70;;
9942;SDS011;5010;45.080;7.634;2023-02-15T02:07:48;17.50;;;14.57;;
9942;SDS011;5010;45.080;7.634;2023-02-15T02:10:20;20.40;;;14.13;;
9942;SDS011;5010;45.080;7.634;2023-02-15T02:12:49;16.45;;;15.23;;
9942;SDS011;5010;45.080;7.634;2023-02-15T02:15:18;16.35;;;15.55;;
9942;SDS011;5010;45.080;7.634;2023-02-15T02:17:53;19.45;;;17.20;;
9942;SDS011;5010;45.080;7.634;2023-02-15T02:20:28;22.98;;;16.83;;
9942;SDS011;5010;45.080;7.634;2023-02-15T02:23:13;17.83;;;14.70;;
9942;SDS011;5010;45.080;7.634;2023-02-15T02:29:11;14.95;;;13.95;;
9942;SDS011;5010;45.080;7.634;2023-02-15T02:35:15;15.88;;;15.07;;
9942;SDS011;5010;45.080;7.634;2023-02-15T02:37:50;17.08;;;14.43;;
9942;SDS011;5010;45.080;7.634;2023-02-15T02:40:25;19.42;;;14.20;;
9942;SDS011;5010;45.080;7.634;2023-02-15T02:43:00;21.15;;;18.25;;
9942;SDS011;5010;45.080;7.634;2023-02-15T02:45:32;18.95;;;15.38;;
9942;SDS011;5010;45.080;7.634;2023-02-15T02:48:07;15.90;;;15.10;;
9942;SDS011;5010;45.080;7.634;2023-02-15T02:50:39;14.57;;;13.70;;
9942;SDS011;5010;45.080;7.634;2023-02-15T02:53:08;15.25;;;14.45;;
9942;SDS011;5010;45.080;7.634;2023-02-15T02:55:37;17.80;;;15.75;;
9942;SDS011;5010;45.080;7.634;2023-02-15T02:58:08;17.75;;;14.77;;
9942;SDS011;5010;45.080;7.634;2023-02-15T03:00:39;17.58;;;15.30;;
9942;SDS011;5010;45.080;7.634;2023-02-15T03:03:11;19.13;;;16.08;;
9942;SDS011;5010;45.080;7.634;2023-02-15T03:05:45;20.90;;;16.75;;
9942;SDS011;5010;45.080;7.634;2023-02-15T03:08:15;18.30;;;15.77;;
9942;SDS011;5010;45.080;7.634;2023-02-15T03:10:46;17.10;;;14.48;;
9942;SDS011;5010;45.080;7.634;2023-02-15T03:13:14;19.95;;;15.10;;
9942;SDS011;5010;45.080;7.634;2023-02-15T03:15:42;17.30;;;15.82;;
9942;SDS011;5010;45.080;7.634;2023-02-15T03:18:29;15.07;;;13.75;;
9942;SDS011;5010;45.080;7.634;2023-02-15T03:21:01;18.52;;;15.05;;
9942;SDS011;5010;45.080;7.634;2023-02-15T03:23:31;15.13;;;13.77;;
9942;SDS011;5010;45.080;7.634;2023-02-15T03:26:00;18.65;;;14.95;;
9942;SDS011;5010;45.080;7.634;2023-02-15T03:28:30;19.15;;;14.32;;
9942;SDS011;5010;45.080;7.634;2023-02-15T03:31:02;18.38;;;15.98;;
9942;SDS011;5010;45.080;7.634;2023-02-15T03:33:32;17.15;;;14.25;;
9942;SDS011;5010;45.080;7.634;2023-02-15T03:36:03;15.70;;;14.88;;
9942;SDS011;5010;45.080;7.634;2023-02-15T03:38:36;18.42;;;14.73;;
9942;SDS011;5010;45.080;7.634;2023-02-15T03:41:10;17.73;;;14.57;;
9942;SDS011;5010;45.080;7.634;2023-02-15T03:43:40;17.83;;;13.30;;
9942;SDS011;5010;45.080;7.634;2023-02-15T03:46:14;20.45;;;16.05;;
9942;SDS011;5010;45.080;7.634;2023-02-15T03:48:47;16.90;;;14.05;;
9942;SDS011;5010;45.080;7.634;2023-02-15T03:51:19;20.65;;;16.13;;
9942;SDS011;5010;45.080;7.634;2023-02-15T03:54:01;16.55;;;15.77;;
9942;SDS011;5010;45.080;7.634;2023-02-15T03:56:31;15.35;;;14.25;;
9942;SDS011;5010;45.080;7.634;2023-02-15T03:59:00;18.33;;;15.57;;
9942;SDS011;5010;45.080;7.634;2023-02-15T04:01:47;16.23;;;13.82;;
9942;SDS011;5010;45.080;7.634;2023-02-15T04:04:25;16.42;;;14.80;;
9942;SDS011;5010;45.080;7.634;2023-02-15T04:07:04;19.80;;;14.73;;
9942;SDS011;5010;45.080;7.634;2023-02-15T04:09:33;15.57;;;13.90;;
9942;SDS011;5010;45.080;7.634;2023-02-15T04:12:17;16.88;;;14.43;;
9942;SDS011;5010;45.080;7.634;2023-02-15T04:14:44;16.65;;;13.75;;
9942;SDS011;5010;45.080;7.634;2023-02-15T04:17:28;16.45;;;14.60;;
9942;SDS011;5010;45.080;7.634;2023-02-15T04:19:55;19.70;;;15.07;;
9942;SDS011;5010;45.080;7.634;2023-02-15T04:22:41;16.60;;;14.57;;
9942;SDS011;5010;45.080;7.634;2023-02-15T04:25:25;20.83;;;15.05;;
9942;SDS011;5010;45.080;7.634;2023-02-15T04:27:52;26.40;;;15.25;;
9942;SDS011;5010;45.080;7.634;2023-02-15T04:30:20;20.63;;;15.98;;
9942;SDS011;5010;45.080;7.634;2023-02-15T04:32:49;16.15;;;14.45;;
9942;SDS011;5010;45.080;7.634;2023-02-15T04:35:16;18.08;;;17.23;;
9942;SDS011;5010;45.080;7.634;2023-02-15T04:37:45;15.10;;;13.32;;
9942;SDS011;5010;45.080;7.634;2023-02-15T04:40:13;16.00;;;14.50;;
9942;SDS011;5010;45.080;7.634;2023-02-15T04:42:40;16.05;;;15.25;;
9942;SDS011;5010;45.080;7.634;2023-02-15T04:45:07;17.48;;;15.60;;
9942;SDS011;5010;45.080;7.634;2023-02-15T04:47:34;14.95;;;13.85;;
9942;SDS011;5010;45.080;7.634;2023-02-15T04:50:01;17.88;;;15.60;;
9942;SDS011;5010;45.080;7.634;2023-02-15T04:52:28;17.23;;;13.88;;
9942;SDS011;5010;45.080;7.634;2023-02-15T04:54:57;17.95;;;15.98;;
9942;SDS011;5010;45.080;7.634;2023-02-15T04:57:23;13.68;;;12.40;;
9942;SDS011;5010;45.080;7.634;2023-02-15T04:59:50;16.20;;;14.23;;
9942;SDS011;5010;45.080;7.634;2023-02-15T05:02:17;18.17;;;15.65;;
9942;SDS011;5010;45.080;7.634;2023-02-15T05:04:44;16.15;;;15.23;;
9942;SDS011;5010;45.080;7.634;2023-02-15T05:07:11;21.05;;;16.13;;
9942;SDS011;5010;45.080;7.634;2023-02-15T05:09:39;16.73;;;14.07;;
9942;SDS011;5010;45.080;7.634;2023-02-15T05:12:08;14.18;;;12.45;;
9942;SDS011;5010;45.080;7.634;2023-02-15T05:14:34;15.95;;;13.90;;
9942;SDS011;5010;45.080;7.634;2023-02-15T05:17:01;14.77;;;13.82;;
9942;SDS011;5010;45.080;7.634;2023-02-15T05:19:30;15.85;;;12.10;;
9942;SDS011;5010;45.080;7.634;2023-02-15T05:21:57;12.90;;;12.02;;
9942;SDS011;5010;45.080;7.634;2023-02-15T05:24:24;14.35;;;12.23;;
9942;SDS011;5010;45.080;7.634;2023-02-15T05:27:11;17.23;;;12.60;;
9942;SDS011;5010;45.080;7.634;2023-02-15T05:29:56;15.30;;;12.63;;
9942;SDS011;5010;45.080;7.634;2023-02-15T05:32:23;13.07;;;10.32;;
9942;SDS011;5010;45.080;7.634;2023-02-15T05:34:50;14.90;;;12.75;;
9942;SDS011;5010;45.080;7.634;2023-02-15T05:37:17;12.77;;;11.02;;
9942;SDS011;5010;45.080;7.634;2023-02-15T05:39:44;13.70;;;11.65;;
9942;SDS011;5010;45.080;7.634;2023-02-15T05:42:12;13.07;;;11.73;;
9942;SDS011;5010;45.080;7.634;2023-02-15T05:44:39;13.40;;;12.00;;
9942;SDS011;5010;45.080;7.634;2023-02-15T05:47:05;15.15;;;13.95;;
9942;SDS011;5010;45.080;7.634;2023-02-15T05:49:33;14.13;;;12.18;;
9942;SDS011;5010;45.080;7.634;2023-02-15T05:52:00;13.02;;;12.32;;
9942;SDS011;5010;45.080;7.634;2023-02-15T05:54:27;14.25;;;11.05;;
9942;SDS011;5010;45.080;7.634;2023-02-15T05:56:54;14.55;;;12.68;;
9942;SDS011;5010;45.080;7.634;2023-02-15T05:59:22;13.93;;;11.40;;
9942;SDS011;5010;45.080;7.634;2023-02-15T06:01:50;14.55;;;12.15;;
9942;SDS011;5010;45.080;7.634;2023-02-15T06:04:16;13.65;;;12.20;;
9942;SDS011;5010;45.080;7.634;2023-02-15T06:06:44;13.32;;;11.40;;
9942;SDS011;5010;45.080;7.634;2023-02-15T06:09:11;14.65;;;13.85;;
9942;SDS011;5010;45.080;7.634;2023-02-15T06:11:38;16.45;;;11.73;;
9942;SDS011;5010;45.080;7.634;2023-02-15T06:14:05;16.35;;;13.35;;
9942;SDS011;5010;45.080;7.634;2023-02-15T06:16:33;16.02;;;11.52;;
9942;SDS011;5010;45.080;7.634;2023-02-15T06:19:00;12.68;;;10.48;;
9942;SDS011;5010;45.080;7.634;2023-02-15T06:21:27;13.98;;;11.00;;
9942;SDS011;5010;45.080;7.634;2023-02-15T06:23:54;13.63;;;12.77;;
9942;SDS011;5010;45.080;7.634;2023-02-15T06:26:21;13.13;;;12.40;;
9942;SDS011;5010;45.080;7.634;2023-02-15T06:28:48;13.70;;;11.85;;
9942;SDS011;5010;45.080;7.634;2023-02-15T06:31:15;15.60;;;12.27;;
9942;SDS011;5010;45.080;7.634;2023-02-15T06:33:43;13.00;;;12.30;;
9942;SDS011;5010;45.080;7.634;2023-02-15T06:36:10;14.07;;;12.77;;
9942;SDS011;5010;45.080;7.634;2023-02-15T06:38:37;12.45;;;11.35;;
9942;SDS011;5010;45.080;7.634;2023-02-15T06:41:04;13.25;;;12.55;;
9942;SDS011;5010;45.080;7.634;2023-02-15T06:43:31;14.90;;;12.77;;
9942;SDS011;5010;45.080;7.634;2023-02-15T06:45:59;15.88;;;14.35;;
9942;SDS011;5010;45.080;7.634;2023-02-15T06:48:26;13.88;;;12.73;;
9942;SDS011;5010;45.080;7.634;2023-02-15T06:50:54;20.50;;;14.45;;
9942;SDS011;5010;45.080;7.634;2023-02-15T06:53:21;14.95;;;13.45;;
9942;SDS011;5010;45.080;7.634;2023-02-15T06:55:48;16.65;;;13.40;;
9942;SDS011;5010;45.080;7.634;2023-02-15T06:58:14;13.82;;;12.50;;
9942;SDS011;5010;45.080;7.634;2023-02-15T07:00:41;15.65;;;14.20;;
9942;SDS011;5010;45.080;7.634;2023-02-15T07:03:08;15.45;;;14.65;;
9942;SDS011;5010;45.080;7.634;2023-02-15T07:05:35;14.85;;;13.43;;
9942;SDS011;5010;45.080;7.634;2023-02-15T07:08:03;14.02;;;12.38;;
9942;SDS011;5010;45.080;7.634;2023-02-15T07:10:30;15.68;;;13.27;;
9942;SDS011;5010;45.080;7.634;2023-02-15T07:12:57;15.13;;;13.98;;
9942;SDS011;5010;45.080;7.634;2023-02-15T07:15:23;15.97;;;13.30;;
9942;SDS011;5010;45.080;7.634;2023-02-15T07:17:50;16.40;;;14.55;;
9942;SDS011;5010;45.080;7.634;2023-02-15T07:20:18;14.93;;;11.75;;
9942;SDS011;5010;45.080;7.634;2023-02-15T07:22:47;18.95;;;14.68;;
9942;SDS011;5010;45.080;7.634;2023-02-15T07:25:16;13.65;;;12.95;;
9942;SDS011;5010;45.080;7.634;2023-02-15T07:27:43;16.83;;;14.93;;
9942;SDS011;5010;45.080;7.634;2023-02-15T07:30:11;14.27;;;13.57;;
9942;SDS011;5010;45.080;7.634;2023-02-15T07:32:39;14.82;;;13.55;;
9942;SDS011;5010;45.080;7.634;2023-02-15T07:35:20;17.90;;;14.10;;
9942;SDS011;5010;45.080;7.634;2023-02-15T07:37:47;14.38;;;12.70;;
9942;SDS011;5010;45.080;7.634;2023-02-15T07:40:14;21.92;;;13.80;;
9942;SDS011;5010;45.080;7.634;2023-02-15T07:42:42;15.90;;;14.07;;
9942;SDS011;5010;45.080;7.634;2023-02-15T07:45:09;17.73;;;16.40;;
9942;SDS011;5010;45.080;7.634;2023-02-15T07:47:36;14.57;;;12.82;;
9942;SDS011;5010;45.080;7.634;2023-02-15T07:50:03;15.98;;;12.82;;
9942;SDS011;5010;45.080;7.634;2023-02-15T07:52:31;16.52;;;13.45;;
9942;SDS011;5010;45.080;7.634;2023-02-15T07:54:58;14.38;;;12.50;;
9942;SDS011;5010;45.080;7.634;2023-02-15T07:57:24;13.68;;;11.60;;
9942;SDS011;5010;45.080;7.634;2023-02-15T07:59:53;16.88;;;13.75;;
9942;SDS011;5010;45.080;7.634;2023-02-15T08:02:19;16.58;;;13.85;;
9942;SDS011;5010;45.080;7.634;2023-02-15T08:04:46;17.10;;;14.80;;
9942;SDS011;5010;45.080;7.634;2023-02-15T08:07:13;16.67;;;14.45;;
9942;SDS011;5010;45.080;7.634;2023-02-15T08:09:40;18.05;;;16.50;;
9942;SDS011;5010;45.080;7.634;2023-02-15T08:12:07;18.65;;;16.83;;
9942;SDS011;5010;45.080;7.634;2023-02-15T08:14:34;17.35;;;14.95;;
9942;SDS011;5010;45.080;7.634;2023-02-15T08:17:03;17.63;;;15.50;;
9942;SDS011;5010;45.080;7.634;2023-02-15T08:19:30;18.88;;;15.77;;
9942;SDS011;5010;45.080;7.634;2023-02-15T08:22:00;15.73;;;14.93;;
9942;SDS011;5010;45.080;7.634;2023-02-15T08:24:29;17.95;;;14.60;;
9942;SDS011;5010;45.080;7.634;2023-02-15T08:26:58;18.38;;;16.13;;
9942;SDS011;5010;45.080;7.634;2023-02-15T08:29:28;20.30;;;15.27;;
9942;SDS011;5010;45.080;7.634;2023-02-15T08:31:56;21.38;;;16.05;;
9942;SDS011;5010;45.080;7.634;2023-02-15T08:34:28;19.05;;;17.10;;
9942;SDS011;5010;45.080;7.634;2023-02-15T08:36:57;17.88;;;16.13;;
9942;SDS011;5010;45.080;7.634;2023-02-15T08:39:24;20.23;;;18.17;;
9942;SDS011;5010;45.080;7.634;2023-02-15T08:41:51;23.48;;;16.73;;
9942;SDS011;5010;45.080;7.634;2023-02-15T08:44:18;19.00;;;16.17;;
9942;SDS011;5010;45.080;7.634;2023-02-15T08:46:46;16.95;;;15.27;;
9942;SDS011;5010;45.080;7.634;2023-02-15T08:49:15;18.80;;;16.08;;
9942;SDS011;5010;45.080;7.634;2023-02-15T08:51:45;19.73;;;15.02;;
9942;SDS011;5010;45.080;7.634;2023-02-15T08:54:14;17.20;;;13.65;;
9942;SDS011;5010;45.080;7.634;2023-02-15T08:56:43;18.15;;;15.88;;
9942;SDS011;5010;45.080;7.634;2023-02-15T08:59:12;18.35;;;17.45;;
9942;SDS011;5010;45.080;7.634;2023-02-15T09:01:40;19.77;;;16.38;;
9942;SDS011;5010;45.080;7.634;2023-02-15T09:04:07;17.85;;;16.75;;
9942;SDS011;5010;45.080;7.634;2023-02-15T09:06:35;21.70;;;18.83;;
9942;SDS011;5010;45.080;7.634;2023-02-15T09:09:04;19.58;;;17.83;;
9942;SDS011;5010;45.080;7.634;2023-02-15T09:11:33;18.50;;;15.70;;
9942;SDS011;5010;45.080;7.634;2023-02-15T09:14:01;15.35;;;14.55;;
9942;SDS011;5010;45.080;7.634;2023-02-15T09:16:31;14.07;;;11.05;;
9942;SDS011;5010;45.080;7.634;2023-02-15T09:18:58;20.33;;;14.65;;
9942;SDS011;5010;45.080;7.634;2023-02-15T09:21:27;18.00;;;15.82;;
9942;SDS011;5010;45.080;7.634;2023-02-15T09:23:55;16.15;;;13.88;;
9942;SDS011;5010;45.080;7.634;2023-02-15T09:26:26;19.30;;;15.15;;
9942;SDS011;5010;45.080;7.634;2023-02-15T09:28:55;15.98;;;13.65;;
9942;SDS011;5010;45.080;7.634;2023-02-15T09:31:24;20.63;;;15.05;;
9942;SDS011;5010;45.080;7.634;2023-02-15T09:33:53;20.85;;;16.55;;
9942;SDS011;5010;45.080;7.634;2023-02-15T09:36:21;16.85;;;15.07;;
9942;SDS011;5010;45.080;7.634;2023-02-15T09:38:52;17.13;;;14.43;;
9942;SDS011;5010;45.080;7.634;2023-02-15T09:41:32;17.50;;;16.33;;
9942;SDS011;5010;45.080;7.634;2023-02-15T09:44:17;19.88;;;16.60;;
9942;SDS011;5010;45.080;7.634;2023-02-15T09:46:58;15.73;;;14.85;;
9942;SDS011;5010;45.080;7.634;2023-02-15T09:49:36;16.70;;;14.38;;
9942;SDS011;5010;45.080;7.634;2023-02-15T09:52:22;19.90;;;15.70;;
9942;SDS011;5010;45.080;7.634;2023-02-15T09:55:04;17.75;;;15.32;;
9942;SDS011;5010;45.080;7.634;2023-02-15T09:57:44;18.05;;;13.73;;
9942;SDS011;5010;45.080;7.634;2023-02-15T10:00:21;17.20;;;14.98;;
9942;SDS011;5010;45.080;7.634;2023-02-15T10:02:58;17.30;;;15.40;;
9942;SDS011;5010;45.080;7.634;2023-02-15T10:05:39;16.25;;;15.45;;
9942;SDS011;5010;45.080;7.634;2023-02-15T10:08:23;16.42;;;14.70;;
9942;SDS011;5010;45.080;7.634;2023-02-15T10:11:03;19.45;;;15.85;;
9942;SDS011;5010;45.080;7.634;2023-02-15T10:14:00;18.30;;;14.80;;
9942;SDS011;5010;45.080;7.634;2023-02-15T10:16:37;18.50;;;15.30;;
9942;SDS011;5010;45.080;7.634;2023-02-15T10:19:15;16.98;;;13.65;;
9942;SDS011;5010;45.080;7.634;2023-02-15T10:21:53;19.52;;;13.77;;
9942;SDS011;5010;45.080;7.634;2023-02-15T10:24:39;15.88;;;14.15;;
9942;SDS011;5010;45.080;7.634;2023-02-15T10:27:26;19.33;;;16.45;;
9942;SDS011;5010;45.080;7.634;2023-02-15T10:30:03;18.13;;;15.18;;
9942;SDS011;5010;45.080;7.634;2023-02-15T10:32:36;19.48;;;15.05;;
9942;SDS011;5010;45.080;7.634;2023-02-15T10:35:10;15.52;;;14.75;;
9942;SDS011;5010;45.080;7.634;2023-02-15T10:37:46;17.17;;;16.17;;
9942;SDS011;5010;45.080;7.634;2023-02-15T10:40:25;18.15;;;14.57;;
9942;SDS011;5010;45.080;7.634;2023-02-15T10:45:58;17.98;;;15.75;;
9942;SDS011;5010;45.080;7.634;2023-02-15T10:48:37;15.82;;;14.52;;
9942;SDS011;5010;45.080;7.634;2023-02-15T10:51:22;16.63;;;15.18;;
9942;SDS011;5010;45.080;7.634;2023-02-15T10:54:05;17.02;;;15.93;;
9942;SDS011;5010;45.080;7.634;2023-02-15T10:56:44;19.00;;;18.00;;
9942;SDS011;5010;45.080;7.634;2023-02-15T10:59:24;18.80;;;15.30;;
9942;SDS011;5010;45.080;7.634;2023-02-15T11:02:13;16.15;;;13.27;;
9942;SDS011;5010;45.080;7.634;2023-02-15T11:04:54;17.90;;;16.90;;
9942;SDS011;5010;45.080;7.634;2023-02-15T11:07:27;18.08;;;15.80;;
9942;SDS011;5010;45.080;7.634;2023-02-15T11:10:01;17.80;;;15.40;;
9942;SDS011;5010;45.080;7.634;2023-02-15T11:12:40;17.80;;;16.45;;
9942;SDS011;5010;45.080;7.634;2023-02-15T11:15:11;18.17;;;14.27;;
9942;SDS011;5010;45.080;7.634;2023-02-15T11:17:45;19.60;;;15.43;;
9942;SDS011;5010;45.080;7.634;2023-02-15T11:20:19;17.52;;;14.68;;
9942;SDS011;5010;45.080;7.634;2023-02-15T11:22:51;17.45;;;15.30;;
9942;SDS011;5010;45.080;7.634;2023-02-15T11:25:20;16.52;;;15.38;;
9942;SDS011;5010;45.080;7.634;2023-02-15T11:27:51;20.63;;;15.85;;
9942;SDS011;5010;45.080;7.634;2023-02-15T11:30:19;16.80;;;14.65;;
9942;SDS011;5010;45.080;7.634;2023-02-15T11:32:50;26.83;;;16.30;;
9942;SDS011;5010;45.080;7.634;2023-02-15T11:35:20;16.60;;;13.18;;
9942;SDS011;5010;45.080;7.634;2023-02-15T11:37:54;16.10;;;14.35;;
9942;SDS011;5010;45.080;7.634;2023-02-15T11:40:25;21.38;;;17.60;;
9942;SDS011;5010;45.080;7.634;2023-02-15T11:42:55;18.17;;;16.77;;
9942;SDS011;5010;45.080;7.634;2023-02-15T11:45:26;20.02;;;16.30;;
9942;SDS011;5010;45.080;7.634;2023-02-15T11:47:56;17.70;;;15.68;;
9942;SDS011;5010;45.080;7.634;2023-02-15T11:50:25;18.50;;;14.85;;
9942;SDS011;5010;45.080;7.634;2023-02-15T11:52:54;17.10;;;15.57;;
9942;SDS011;5010;45.080;7.634;2023-02-15T11:55:25;16.17;;;15.38;;
9942;SDS011;5010;45.080;7.634;2023-02-15T11:57:55;18.20;;;15.50;;
9942;SDS011;5010;45.080;7.634;2023-02-15T12:00:29;18.75;;;15.40;;
9942;SDS011;5010;45.080;7.634;2023-02-15T12:03:02;18.20;;;13.57;;
9942;SDS011;5010;45.080;7.634;2023-02-15T12:05:35;21.52;;;15.07;;
9942;SDS011;5010;45.080;7.634;2023-02-15T12:08:09;19.17;;;14.98;;
9942;SDS011;5010;45.080;7.634;2023-02-15T12:10:42;16.52;;;13.82;;
9942;SDS011;5010;45.080;7.634;2023-02-15T12:13:18;20.15;;;14.32;;
9942;SDS011;5010;45.080;7.634;2023-02-15T12:15:46;20.20;;;13.15;;
9942;SDS011;5010;45.080;7.634;2023-02-15T12:18:20;16.35;;;13.23;;
9942;SDS011;5010;45.080;7.634;2023-02-15T12:20:57;13.50;;;12.30;;
9942;SDS011;5010;45.080;7.634;2023-02-15T12:23:25;17.05;;;14.45;;
9942;SDS011;5010;45.080;7.634;2023-02-15T12:25:55;18.25;;;14.75;;
9942;SDS011;5010;45.080;7.634;2023-02-15T12:28:25;18.02;;;15.85;;
9942;SDS011;5010;45.080;7.634;2023-02-15T12:30:57;22.38;;;17.23;;
9942;SDS011;5010;45.080;7.634;2023-02-15T12:33:27;18.98;;;17.08;;
9942;SDS011;5010;45.080;7.634;2023-02-15T12:35:57;24.92;;;19.33;;
9942;SDS011;5010;45.080;7.634;2023-02-15T12:38:27;22.45;;;17.98;;
9942;SDS011;5010;45.080;7.634;2023-02-15T12:40:58;23.98;;;18.58;;
9942;SDS011;5010;45.080;7.634;2023-02-15T12:43:27;24.25;;;17.02;;
9942;SDS011;5010;45.080;7.634;2023-02-15T12:46:18;24.02;;;17.33;;
9942;SDS011;5010;45.080;7.634;2023-02-15T12:48:52;26.83;;;18.58;;
9942;SDS011;5010;45.080;7.634;2023-02-15T12:51:42;34.90;;;26.67;;
9942;SDS011;5010;45.080;7.634;2023-02-15T12:54:29;37.10;;;28.17;;
9942;SDS011;5010;45.080;7.634;2023-02-15T12:57:13;37.90;;;25.77;;
9942;SDS011;5010;45.080;7.634;2023-02-15T12:59:49;38.33;;;24.30;;
9942;SDS011;5010;45.080;7.634;2023-02-15T13:02:20;28.98;;;19.48;;
9942;SDS011;5010;45.080;7.634;2023-02-15T13:04:54;34.10;;;22.33;;
9942;SDS011;5010;45.080;7.634;2023-02-15T13:07:23;28.48;;;22.33;;
9942;SDS011;5010;45.080;7.634;2023-02-15T13:09:55;29.13;;;20.83;;
9942;SDS011;5010;45.080;7.634;2023-02-15T13:12:23;30.13;;;22.38;;
9942;SDS011;5010;45.080;7.634;2023-02-15T13:14:52;24.38;;;19.67;;
9942;SDS011;5010;45.080;7.634;2023-02-15T13:17:21;27.20;;;18.83;;
9942;SDS011;5010;45.080;7.634;2023-02-15T13:19:56;25.92;;;19.20;;
9942;SDS011;5010;45.080;7.634;2023-02-15T13:22:27;18.25;;;13.90;;
9942;SDS011;5010;45.080;7.634;2023-02-15T13:25:01;28.02;;;19.50;;
9942;SDS011;5010;45.080;7.634;2023-02-15T13:27:32;21.23;;;15.50;;
9942;SDS011;5010;45.080;7.634;2023-02-15T13:30:03;25.67;;;19.15;;
9942;SDS011;5010;45.080;7.634;2023-02-15T13:32:48;22.60;;;16.13;;
9942;SDS011;5010;45.080;7.634;2023-02-15T13:35:19;19.95;;;14.20;;
9942;SDS011;5010;45.080;7.634;2023-02-15T13:37:56;17.48;;;12.27;;
9942;SDS011;5010;45.080;7.634;2023-02-15T13:40:43;16.50;;;15.70;;
9942;SDS011;5010;45.080;7.634;2023-02-15T13:43:29;22.33;;;15.73;;
9942;SDS011;5010;45.080;7.634;2023-02-15T13:46:13;20.73;;;16.50;;
9942;SDS011;5010;45.080;7.634;2023-02-15T13:48:50;15.75;;;11.73;;
9942;SDS011;5010;45.080;7.634;2023-02-15T13:51:27;18.35;;;15.60;;
9942;SDS011;5010;45.080;7.634;2023-02-15T13:54:06;18.00;;;13.55;;
9942;SDS011;5010;45.080;7.634;2023-02-15T13:56:46;23.05;;;15.07;;
9942;SDS011;5010;45.080;7.634;2023-02-15T13:59:26;19.45;;;16.45;;
9942;SDS011;5010;45.080;7.634;2023-02-15T14:02:23;24.20;;;15.70;;
9942;SDS011;5010;45.080;7.634;2023-02-15T14:05:12;20.45;;;15.05;;
9942;SDS011;5010;45.080;7.634;2023-02-15T14:07:54;20.60;;;15.13;;
9942;SDS011;5010;45.080;7.634;2023-02-15T14:10:31;13.90;;;11.10;;
9942;SDS011;5010;45.080;7.634;2023-02-15T14:16:27;18.23;;;14.85;;
9942;SDS011;5010;45.080;7.634;2023-02-15T14:19:04;16.73;;;12.15;;
9942;SDS011;5010;45.080;7.634;2023-02-15T14:21:41;17.80;;;14.30;;
9942;SDS011;5010;45.080;7.634;2023-02-15T14:24:17;14.82;;;12.32;;
9942;SDS011;5010;45.080;7.634;2023-02-15T14:26:55;15.00;;;12.02;;
9942;SDS011;5010;45.080;7.634;2023-02-15T14:29:38;22.67;;;14.15;;
9942;SDS011;5010;45.080;7.634;2023-02-15T14:32:14;15.50;;;12.93;;
9942;SDS011;5010;45.080;7.634;2023-02-15T14:34:46;14.43;;;13.02;;
9942;SDS011;5010;45.080;7.634;2023-02-15T14:37:20;13.30;;;12.45;;
9942;SDS011;5010;45.080;7.634;2023-02-15T14:39:56;16.73;;;12.35;;
9942;SDS011;5010;45.080;7.634;2023-02-15T14:42:45;18.13;;;12.30;;
9942;SDS011;5010;45.080;7.634;2023-02-15T14:45:21;17.80;;;12.70;;
9942;SDS011;5010;45.080;7.634;2023-02-15T14:47:55;15.65;;;14.02;;
9942;SDS011;5010;45.080;7.634;2023-02-15T14:50:38;22.50;;;12.45;;
9942;SDS011;5010;45.080;7.634;2023-02-15T14:56:14;14.48;;;9.23;;
9942;SDS011;5010;45.080;7.634;2023-02-15T14:58:57;19.73;;;12.57;;
9942;SDS011;5010;45.080;7.634;2023-02-15T15:01:58;13.90;;;9.95;;
9942;SDS011;5010;45.080;7.634;2023-02-15T15:04:35;13.95;;;8.65;;
9942;SDS011;5010;45.080;7.634;2023-02-15T15:07:08;16.60;;;12.70;;
9942;SDS011;5010;45.080;7.634;2023-02-15T15:09:41;10.13;;;8.88;;
9942;SDS011;5010;45.080;7.634;2023-02-15T15:12:36;13.68;;;9.65;;
9942;SDS011;5010;45.080;7.634;2023-02-15T15:15:06;11.85;;;7.80;;
9942;SDS011;5010;45.080;7.634;2023-02-15T15:17:56;13.57;;;9.57;;
9942;SDS011;5010;45.080;7.634;2023-02-15T15:20:37;12.00;;;10.27;;
9942;SDS011;5010;45.080;7.634;2023-02-15T15:29:04;13.10;;;9.30;;
9942;SDS011;5010;45.080;7.634;2023-02-15T15:31:43;11.63;;;9.65;;
9942;SDS011;5010;45.080;7.634;2023-02-15T15:43:57;11.18;;;7.65;;
9942;SDS011;5010;45.080;7.634;2023-02-15T15:46:52;16.73;;;9.80;;
9942;SDS011;5010;45.080;7.634;2023-02-15T15:49:39;11.00;;;8.50;;